Time;durP1;ratioP1;P1;durP2;ratioP2;P2;SDS_P1;SDS_P2;PMS_P1;PMS_P2;Temp;Humidity;BMP_temperature;BMP_pressure;BME280_temperature;BME280_humidity;BME280_pressure;Samples;Min_cycle;Max_cycle;Signal;HPM_P1;HPM_P2
2022/02/08 00:00:01;;;;;;;2.35;2.15;;;;;;;;;;5076329;28;20024;-67
2022/02/08 00:02:29;;;;;;;3.97;2.17;;;;;;;;;;5094529;28;20035;-68
2022/02/08 00:04:57;;;;;;;4.45;2.42;;;;;;;;;;5094481;28;20028;-70
2022/02/08 00:07:26;;;;;;;3.03;2.35;;;;;;;;;;5094369;28;20060;-69
2022/02/08 00:09:52;;;;;;;7.50;2.67;;;;;;;;;;5076061;28;20081;-69
2022/02/08 00:12:18;;;;;;;4.53;2.00;;;;;;;;;;5094258;28;20440;-65
2022/02/08 00:14:45;;;;;;;3.75;2.20;;;;;;;;;;5093861;28;20042;-65
2022/02/08 00:17:12;;;;;;;6.13;1.90;;;;;;;;;;5075888;28;20074;-66
2022/02/08 00:19:38;;;;;;;7.88;2.58;;;;;;;;;;5094116;28;20073;-67
2022/02/08 00:22:05;;;;;;;5.53;2.33;;;;;;;;;;5075836;28;20032;-67
2022/02/08 00:24:32;;;;;;;6.25;2.17;;;;;;;;;;5075814;28;20453;-66
2022/02/08 00:26:59;;;;;;;5.22;2.38;;;;;;;;;;5093973;28;20062;-68
2022/02/08 00:29:25;;;;;;;9.13;3.00;;;;;;;;;;5075678;28;20028;-69
2022/02/08 00:31:51;;;;;;;6.65;2.35;;;;;;;;;;5094241;28;20468;-66
2022/02/08 00:34:18;;;;;;;7.13;2.70;;;;;;;;;;5093575;28;20122;-68
2022/02/08 00:36:44;;;;;;;10.35;2.67;;;;;;;;;;5093919;28;20115;-68
2022/02/08 00:39:11;;;;;;;8.77;3.20;;;;;;;;;;5093804;28;20119;-68
2022/02/08 00:41:38;;;;;;;9.55;3.00;;;;;;;;;;5093757;28;20027;-67
2022/02/08 00:47:01;;;;;;;8.90;2.78;;;;;;;;;;5011133;28;20042;-67
2022/02/08 00:49:32;;;;;;;9.63;2.65;;;;;;;;;;4994840;28;20042;-68
2022/02/08 00:52:06;;;;;;;;;;;;;;;;;;5011724;28;20038;-69
2022/02/08 00:54:32;;;;;;;6.90;2.30;;;;;;;;;;5011322;28;19906;-67
2022/02/08 00:56:59;;;;;;;5.50;2.17;;;;;;;;;;5011024;28;20041;-65
2022/02/08 00:59:25;;;;;;;8.43;3.25;;;;;;;;;;4994714;28;20065;-66
2022/02/08 01:01:51;;;;;;;6.30;2.58;;;;;;;;;;5011113;28;20133;-66
2022/02/08 01:04:18;;;;;;;8.85;2.90;;;;;;;;;;5011291;28;20041;-66
2022/02/08 01:06:46;;;;;;;10.32;3.22;;;;;;;;;;4994481;28;20033;-66
2022/02/08 01:09:17;;;;;;;8.27;2.95;;;;;;;;;;4993891;28;20030;-66
2022/02/08 01:11:45;;;;;;;7.45;2.45;;;;;;;;;;5011038;28;20041;-67
2022/02/08 01:14:13;;;;;;;10.60;3.22;;;;;;;;;;4994200;28;20049;-65
2022/02/08 01:16:39;;;;;;;9.50;2.67;;;;;;;;;;4994313;28;20041;-68
2022/02/08 01:19:06;;;;;;;10.27;2.63;;;;;;;;;;5010907;28;20045;-65
2022/02/08 01:21:32;;;;;;;8.15;2.45;;;;;;;;;;5010921;28;20536;-66
2022/02/08 01:23:59;;;;;;;6.57;2.17;;;;;;;;;;5052705;28;20046;-67
2022/02/08 01:26:26;;;;;;;7.80;2.75;;;;;;;;;;5093158;28;20024;-65
2022/02/08 01:29:17;;;;;;;6.82;2.95;;;;;;;;;;5093091;28;20079;-66
2022/02/08 01:31:45;;;;;;;8.25;3.10;;;;;;;;;;5093158;28;20085;-65
2022/02/08 01:37:11;;;;;;;6.40;2.70;;;;;;;;;;5051059;28;20125;-67
2022/02/08 01:40:33;;;;;;;10.40;3.15;;;;;;;;;;5074947;28;20077;-66
2022/02/08 01:45:22;;;;;;;8.68;3.42;;;;;;;;;;5093022;28;20033;-68
2022/02/08 01:47:50;;;;;;;9.38;2.83;;;;;;;;;;5092309;28;20046;-67
2022/02/08 01:50:17;;;;;;;10.77;2.85;;;;;;;;;;5092946;28;20030;-67
2022/02/08 01:52:44;;;;;;;7.75;2.15;;;;;;;;;;5093020;28;20027;-67
2022/02/08 01:55:12;;;;;;;14.40;3.05;;;;;;;;;;5092911;28;20046;-68
2022/02/08 01:57:39;;;;;;;9.20;2.30;;;;;;;;;;5092829;28;20028;-67
2022/02/08 02:00:10;;;;;;;10.73;3.25;;;;;;;;;;5092856;28;20384;-67
2022/02/08 02:02:36;;;;;;;10.68;2.75;;;;;;;;;;5092875;28;20111;-68
2022/02/08 02:05:03;;;;;;;10.98;3.17;;;;;;;;;;5092866;28;20024;-67
2022/02/08 02:07:29;;;;;;;8.52;2.97;;;;;;;;;;5092791;28;20150;-66
2022/02/08 02:09:56;;;;;;;7.90;2.42;;;;;;;;;;5074860;28;20422;-67
2022/02/08 02:12:22;;;;;;;9.40;2.97;;;;;;;;;;5092741;28;20534;-67
2022/02/08 02:14:48;;;;;;;7.45;3.92;;;;;;;;;;5092721;28;20073;-68
2022/02/08 02:17:14;;;;;;;12.45;3.35;;;;;;;;;;5092619;28;20035;-66
2022/02/08 02:19:41;;;;;;;9.75;3.25;;;;;;;;;;5093557;28;20476;-65
2022/02/08 02:22:08;;;;;;;9.20;2.45;;;;;;;;;;5097122;28;20102;-64
2022/02/08 02:24:35;;;;;;;7.35;2.67;;;;;;;;;;5079415;28;20058;-66
2022/02/08 02:27:03;;;;;;;7.22;2.22;;;;;;;;;;5079215;28;20039;-65
2022/02/08 02:29:30;;;;;;;9.10;2.78;;;;;;;;;;5097010;28;20028;-65
2022/02/08 02:31:57;;;;;;;12.88;2.92;;;;;;;;;;5096636;28;20385;-66
2022/02/08 02:34:23;;;;;;;8.07;2.53;;;;;;;;;;5096453;28;20028;-65
2022/02/08 02:36:50;;;;;;;10.70;2.55;;;;;;;;;;5096417;28;20586;-67
2022/02/08 02:39:21;;;;;;;11.85;3.00;;;;;;;;;;5096482;28;20361;-68
2022/02/08 02:41:47;;;;;;;12.60;3.38;;;;;;;;;;5096528;28;20070;-67
2022/02/08 02:44:19;;;;;;;6.82;3.00;;;;;;;;;;5078195;28;20028;-67
2022/02/08 02:46:45;;;;;;;7.72;2.75;;;;;;;;;;5077622;28;20085;-68
2022/02/08 02:49:12;;;;;;;8.15;3.20;;;;;;;;;;5095932;28;20059;-67
2022/02/08 02:51:41;;;;;;;10.20;2.83;;;;;;;;;;5077690;28;20031;-66
2022/02/08 02:54:17;;;;;;;9.15;2.88;;;;;;;;;;5077618;28;20028;-68
2022/02/08 02:56:45;;;;;;;7.55;2.95;;;;;;;;;;5095751;28;20031;-67
2022/02/08 02:59:11;;;;;;;7.75;2.50;;;;;;;;;;5095740;28;20028;-67
2022/02/08 03:01:59;;;;;;;5.47;2.10;;;;;;;;;;5095669;28;20051;-67
2022/02/08 03:20:51;;;;;;;7.38;2.53;;;;;;;;;;5095405;28;20465;-67
2022/02/08 03:23:17;;;;;;;6.63;2.28;;;;;;;;;;5095482;28;20077;-68
2022/02/08 03:25:43;;;;;;;10.55;3.42;;;;;;;;;;5095313;28;20062;-67
2022/02/08 03:28:10;;;;;;;11.07;2.22;;;;;;;;;;5095165;28;20077;-66
2022/02/08 03:30:36;;;;;;;11.23;2.65;;;;;;;;;;5095224;28;20063;-67
2022/02/08 03:33:03;;;;;;;9.77;3.00;;;;;;;;;;5094560;28;20024;-66
2022/02/08 03:35:29;;;;;;;13.75;3.47;;;;;;;;;;5076866;28;20023;-66
2022/02/08 03:38:00;;;;;;;12.88;5.50;;;;;;;;;;5094742;28;20395;-67
2022/02/08 03:43:14;;;;;;;8.65;2.20;;;;;;;;;;5094996;28;20032;-66
2022/02/08 03:45:43;;;;;;;12.68;2.80;;;;;;;;;;5076634;28;20365;-67
2022/02/08 03:48:10;;;;;;;9.55;2.50;;;;;;;;;;5094807;28;20118;-67
2022/02/08 03:50:37;;;;;;;11.32;2.85;;;;;;;;;;5094790;28;20039;-67
2022/02/08 03:53:03;;;;;;;8.60;2.08;;;;;;;;;;5076465;28;20020;-68
2022/02/08 03:55:29;;;;;;;9.15;1.98;;;;;;;;;;5076512;28;20024;-66
2022/02/08 03:57:56;;;;;;;6.10;2.55;;;;;;;;;;5076358;28;20384;-66
2022/02/08 04:00:24;;;;;;;10.60;3.53;;;;;;;;;;5094856;28;20376;-67
2022/02/08 04:02:54;;;;;;;9.50;2.92;;;;;;;;;;5076032;28;20032;-68
2022/02/08 04:08:00;;;;;;;14.82;2.40;;;;;;;;;;5094397;28;20434;-68
2022/02/08 04:10:29;;;;;;;15.60;2.17;;;;;;;;;;5094446;28;20028;-67
2022/02/08 04:13:21;;;;;;;11.50;3.13;;;;;;;;;;5094350;28;20376;-68
2022/02/08 04:15:55;;;;;;;12.25;3.13;;;;;;;;;;5093592;28;20071;-68
2022/02/08 04:18:43;;;;;;;10.90;2.75;;;;;;;;;;5075996;28;20032;-68
2022/02/08 04:32:21;;;;;;;9.00;2.55;;;;;;;;;;5094023;28;20047;-70
2022/02/08 04:35:04;;;;;;;7.28;2.65;;;;;;;;;;5093924;28;20024;-68
2022/02/08 04:37:53;;;;;;;14.57;2.60;;;;;;;;;;5093845;28;20028;-68
2022/02/08 04:40:46;;;;;;;13.15;3.17;;;;;;;;;;5093334;28;20040;-69
2022/02/08 04:43:25;;;;;;;8.38;2.90;;;;;;;;;;5092882;28;20028;-70
2022/02/08 04:46:00;;;;;;;12.48;3.70;;;;;;;;;;5093387;28;20460;-69
2022/02/08 04:48:46;;;;;;;17.00;5.35;;;;;;;;;;5075257;28;20066;-68
2022/02/08 04:51:19;;;;;;;12.20;4.32;;;;;;;;;;5093635;28;20020;-70
2022/02/08 04:54:24;;;;;;;12.43;4.63;;;;;;;;;;5075168;28;20023;-69
2022/02/08 04:57:07;;;;;;;14.85;3.75;;;;;;;;;;5088878;28;20126;-69
2022/02/08 05:43:41;;;;;;;18.40;6.10;;;;;;;;;;5092821;28;20138;-67
2022/02/08 05:45:48;;;;;;;27.65;8.10;;;;;;;;;;5081570;28;20437;-68
2022/02/08 05:48:22;;;;;;;12.30;3.92;;;;;;;;;;5093026;28;20464;-66
2022/02/08 05:50:58;;;;;;;11.70;3.20;;;;;;;;;;5093237;28;20046;-67
2022/02/08 05:53:41;;;;;;;14.23;3.72;;;;;;;;;;5074862;28;20029;-67
2022/02/08 05:56:08;;;;;;;11.90;3.55;;;;;;;;;;5096109;28;20399;-67
2022/02/08 05:58:35;;;;;;;11.55;4.82;;;;;;;;;;5096686;28;20388;-66
2022/02/08 06:01:01;;;;;;;24.38;5.85;;;;;;;;;;5078629;28;20086;-65
2022/02/08 06:03:27;;;;;;;8.20;3.33;;;;;;;;;;5096864;28;20059;-67
2022/02/08 06:05:53;;;;;;;22.45;8.02;;;;;;;;;;5096718;28;20031;-70
2022/02/08 06:08:20;;;;;;;14.00;5.45;;;;;;;;;;5078525;28;20111;-67
2022/02/08 06:10:53;;;;;;;15.80;4.45;;;;;;;;;;5096711;28;20468;-68
2022/02/08 06:13:20;;;;;;;11.52;4.60;;;;;;;;;;5101260;28;20024;-68
2022/02/08 06:15:49;;;;;;;10.70;4.35;;;;;;;;;;5105067;28;20428;-67
2022/02/08 06:18:16;;;;;;;10.43;3.75;;;;;;;;;;5098463;28;20383;-68
2022/02/08 06:20:42;;;;;;;18.63;4.30;;;;;;;;;;5098505;28;20024;-65
2022/02/08 06:23:08;;;;;;;14.48;4.55;;;;;;;;;;5116769;28;20027;-64
2022/02/08 06:25:35;;;;;;;9.07;4.30;;;;;;;;;;5116654;28;20026;-65
2022/02/08 06:28:01;;;;;;;12.95;4.35;;;;;;;;;;5109358;28;20739;-67
2022/02/08 06:30:28;;;;;;;13.02;4.20;;;;;;;;;;5095471;28;20418;-65
2022/02/08 06:32:56;;;;;;;12.45;4.82;;;;;;;;;;5095751;28;20032;-66
2022/02/08 06:35:29;;;;;;;15.93;5.32;;;;;;;;;;5094711;28;20081;-65
2022/02/08 06:37:58;;;;;;;19.17;5.65;;;;;;;;;;5098877;28;20542;-67
2022/02/08 06:40:24;;;;;;;11.70;4.57;;;;;;;;;;5095812;28;20035;-64
2022/02/08 06:42:50;;;;;;;12.13;4.28;;;;;;;;;;5095727;28;20071;-65
2022/02/08 06:45:17;;;;;;;14.93;4.85;;;;;;;;;;5094341;28;20488;-64
2022/02/08 06:47:49;;;;;;;19.85;6.10;;;;;;;;;;5094497;28;20097;-64
2022/02/08 06:50:15;;;;;;;12.65;4.95;;;;;;;;;;5095586;28;20381;-64
2022/02/08 06:52:42;;;;;;;11.68;4.95;;;;;;;;;;5095716;28;20024;-64
2022/02/08 06:55:09;;;;;;;31.73;11.02;;;;;;;;;;5095518;28;20024;-64
2022/02/08 06:58:19;;;;;;;22.20;8.02;;;;;;;;;;5094293;28;20036;-65
2022/02/08 07:00:31;;;;;;;23.55;8.50;;;;;;;;;;5088948;28;20369;-64
2022/02/08 07:02:57;;;;;;;27.17;8.43;;;;;;;;;;5094166;28;20028;-65
2022/02/08 07:05:23;;;;;;;23.70;6.70;;;;;;;;;;5094022;28;20032;-65
2022/02/08 07:07:50;;;;;;;26.23;8.35;;;;;;;;;;5094347;28;20066;-64
2022/02/08 07:10:16;;;;;;;24.67;8.63;;;;;;;;;;5094299;28;20028;-64
2022/02/08 07:12:44;;;;;;;24.50;7.80;;;;;;;;;;5095166;28;20455;-65
2022/02/08 07:15:14;;;;;;;18.65;7.95;;;;;;;;;;5095285;28;20492;-67
2022/02/08 07:17:40;;;;;;;25.13;9.32;;;;;;;;;;5115868;28;20032;-65
2022/02/08 07:20:07;;;;;;;17.90;7.47;;;;;;;;;;5115422;28;20047;-69
2022/02/08 07:22:33;;;;;;;18.48;7.18;;;;;;;;;;5115664;28;20028;-68
2022/02/08 07:25:00;;;;;;;27.90;7.22;;;;;;;;;;5115598;28;20027;-68
2022/02/08 07:27:27;;;;;;;18.52;7.28;;;;;;;;;;5115547;28;20024;-68
2022/02/08 07:29:54;;;;;;;16.27;7.30;;;;;;;;;;5115810;28;20080;-67
2022/02/08 07:32:28;;;;;;;21.88;7.72;;;;;;;;;;5115508;28;20032;-68
2022/02/08 07:37:50;;;;;;;19.65;8.13;;;;;;;;;;5115183;28;20050;-67
2022/02/08 07:43:16;;;;;;;30.00;9.23;;;;;;;;;;5080374;28;20035;-67
2022/02/08 07:45:43;;;;;;;20.55;8.07;;;;;;;;;;5113911;28;20367;-68
2022/02/08 07:48:09;;;;;;;22.70;9.25;;;;;;;;;;5095865;28;20110;-66
2022/02/08 07:50:39;;;;;;;21.75;8.88;;;;;;;;;;5076437;28;20186;-67
2022/02/08 07:53:08;;;;;;;19.33;8.43;;;;;;;;;;5094685;28;20032;-66
2022/02/08 07:55:34;;;;;;;28.58;10.98;;;;;;;;;;5094581;28;20024;-67
2022/02/08 07:58:00;;;;;;;28.30;10.70;;;;;;;;;;5094254;28;20036;-66
2022/02/08 08:00:26;;;;;;;17.15;7.47;;;;;;;;;;5094400;28;20520;-69
2022/02/08 08:02:53;;;;;;;23.90;7.85;;;;;;;;;;5094283;28;20470;-69
2022/02/08 08:05:20;;;;;;;29.88;10.45;;;;;;;;;;5076017;28;20067;-68
2022/02/08 08:07:46;;;;;;;36.35;11.68;;;;;;;;;;5094285;28;20031;-69
2022/02/08 08:10:18;;;;;;;29.38;11.20;;;;;;;;;;5075059;28;20075;-71
2022/02/08 08:12:50;;;;;;;24.00;8.50;;;;;;;;;;5094145;28;20077;-68
2022/02/08 08:18:25;;;;;;;28.73;12.73;;;;;;;;;;5093506;28;20123;-67
2022/02/08 08:20:47;;;;;;;28.10;10.43;;;;;;;;;;5093465;28;20068;-72
2022/02/08 08:23:13;;;;;;;32.88;11.00;;;;;;;;;;5093838;28;20085;-67
2022/02/08 08:25:39;;;;;;;30.33;10.32;;;;;;;;;;5093828;28;20016;-64
2022/02/08 08:28:07;;;;;;;29.52;10.13;;;;;;;;;;5093907;28;20032;-66
2022/02/08 08:30:33;;;;;;;38.92;14.07;;;;;;;;;;5093635;28;20023;-68
2022/02/08 08:33:00;;;;;;;73.97;22.58;;;;;;;;;;5091785;28;20069;-67
2022/02/08 08:35:27;;;;;;;25.58;10.55;;;;;;;;;;5093316;28;20028;-69
2022/02/08 08:37:59;;;;;;;21.70;8.48;;;;;;;;;;5093376;28;20032;-68
2022/02/08 08:41:20;;;;;;;37.80;15.75;;;;;;;;;;5093318;28;20089;-71
2022/02/08 08:51:25;;;;;;;22.95;5.47;;;;;;;;;;5093213;28;20119;-66
2022/02/08 08:53:52;;;;;;;12.52;4.97;;;;;;;;;;5093144;28;20377;-66
2022/02/08 08:56:18;;;;;;;107.00;37.08;;;;;;;;;;5093025;28;20464;-66
2022/02/08 08:58:44;;;;;;;41.58;21.67;;;;;;;;;;5093241;28;20070;-66
2022/02/08 09:01:13;;;;;;;25.73;11.50;;;;;;;;;;5092887;28;20444;-66
2022/02/08 09:03:40;;;;;;;46.72;20.33;;;;;;;;;;5074826;28;20075;-69
2022/02/08 09:06:07;;;;;;;28.60;12.10;;;;;;;;;;5092531;28;20425;-70
2022/02/08 09:08:38;;;;;;;27.98;9.65;;;;;;;;;;5074964;28;20051;-67
2022/02/08 09:11:15;;;;;;;16.00;8.52;;;;;;;;;;5092821;28;20369;-65
2022/02/08 09:14:15;;;;;;;24.63;5.65;;;;;;;;;;5093163;28;20055;-67
2022/02/08 09:16:47;;;;;;;22.85;7.88;;;;;;;;;;5088387;28;20047;-67
2022/02/08 09:29:50;;;;;;;21.77;9.02;;;;;;;;;;5091317;28;20534;-65
2022/02/08 09:32:29;;;;;;;17.55;5.93;;;;;;;;;;5093117;28;20020;-65
2022/02/08 09:34:55;;;;;;;23.55;7.18;;;;;;;;;;5074918;28;20031;-66
2022/02/08 09:37:21;;;;;;;14.73;5.22;;;;;;;;;;5092950;28;20457;-66
2022/02/08 09:39:52;;;;;;;21.35;7.13;;;;;;;;;;5092958;28;20123;-66
2022/02/08 09:42:19;;;;;;;31.93;8.23;;;;;;;;;;5073777;28;20456;-67
2022/02/08 09:44:45;;;;;;;27.25;8.70;;;;;;;;;;5101764;28;20254;-65
2022/02/08 09:47:16;;;;;;;22.80;7.65;;;;;;;;;;5094630;28;20051;-66
2022/02/08 09:49:51;;;;;;;16.58;6.93;;;;;;;;;;5100669;28;20520;-67
2022/02/08 09:52:20;;;;;;;21.30;7.03;;;;;;;;;;5092612;28;20848;-67
2022/02/08 09:54:46;;;;;;;22.40;6.03;;;;;;;;;;5092440;28;20488;-66
2022/02/08 09:57:18;;;;;;;20.85;5.75;;;;;;;;;;5092481;28;20120;-66
2022/02/08 09:59:45;;;;;;;28.83;10.77;;;;;;;;;;5092784;28;20067;-67
2022/02/08 10:02:17;;;;;;;22.33;8.80;;;;;;;;;;5074333;28;20109;-67
2022/02/08 10:04:43;;;;;;;24.00;8.82;;;;;;;;;;5092812;28;20111;-68
2022/02/08 10:07:10;;;;;;;32.92;9.30;;;;;;;;;;5074246;28;20119;-67
2022/02/08 10:09:37;;;;;;;26.42;6.45;;;;;;;;;;5092581;28;20051;-66
2022/02/08 10:12:03;;;;;;;19.80;6.25;;;;;;;;;;5092292;28;20077;-67
2022/02/08 10:14:54;;;;;;;21.88;8.50;;;;;;;;;;5074062;28;20047;-68
2022/02/08 10:22:43;;;;;;;38.58;14.57;;;;;;;;;;5092096;28;20036;-66
2022/02/08 10:25:12;;;;;;;29.63;14.45;;;;;;;;;;5092305;28;20021;-68
2022/02/08 10:27:43;;;;;;;24.30;14.48;;;;;;;;;;5092163;28;20028;-68
2022/02/08 10:38:45;;;;;;;11.55;3.08;;;;;;;;;;5091996;28;20039;-66
2022/02/08 10:41:16;;;;;;;12.73;3.63;;;;;;;;;;5092441;28;20028;-66
2022/02/08 10:43:44;;;;;;;9.32;3.03;;;;;;;;;;5095898;28;20024;-67
2022/02/08 10:46:20;;;;;;;17.45;3.10;;;;;;;;;;5077656;28;20028;-67
2022/02/08 10:48:46;;;;;;;7.03;3.42;;;;;;;;;;5095854;28;20017;-66
2022/02/08 10:51:14;;;;;;;10.27;4.07;;;;;;;;;;5095817;28;20027;-69
2022/02/08 10:53:52;;;;;;;16.10;4.82;;;;;;;;;;5077556;28;20467;-68
2022/02/08 10:56:23;;;;;;;12.85;3.97;;;;;;;;;;5095959;28;20058;-66
2022/02/08 10:59:04;;;;;;;5.80;2.42;;;11.80;77.20;;;;;;5077392;28;20035;-68
2022/02/08 11:01:33;;;;;;;9.95;2.13;;;;;;;;;;5077533;28;20410;-68
2022/02/08 11:04:06;;;;;;;92.65;32.60;;;11.30;99.90;;;;;;5095873;28;20088;-67
2022/02/08 11:06:43;;;;;;;61.13;24.58;;;10.80;72.50;;;;;;5095501;28;20024;-68
2022/02/08 11:17:42;;;;;;;19.45;7.65;;;;;;;;;;5095366;28;20036;-67
2022/02/08 11:23:07;;;;;;;28.63;11.88;;;12.20;71.60;;;;;;5095100;28;20024;-67
2022/02/08 11:25:39;;;;;;;44.35;17.98;;;;;;;;;;5094297;28;20036;-68
2022/02/08 11:28:31;;;;;;;25.95;10.57;;;11.60;70.30;;;;;;5094857;28;20020;-67
2022/02/08 11:31:20;;;;;;;18.20;7.93;;;;;;;;;;5095188;28;20020;-67
2022/02/08 11:43:20;;;;;;;11.18;6.00;;;11.70;68.60;;;;;;5094903;28;20051;-66
2022/02/08 11:48:48;;;;;;;72.35;27.15;;;10.60;71.10;;;;;;5093542;28;20032;-65
2022/02/08 11:54:55;;;;;;;22.02;10.75;;;;;;;;;;5094224;28;20024;-65
2022/02/08 11:57:02;;;;;;;14.43;4.70;;;;;;;;;;5086599;28;20085;-65
2022/02/08 11:59:50;;;;;;;17.27;7.90;;;11.10;99.90;;;;;;5091974;28;20504;-64
2022/02/08 12:05:19;;;;;;;19.90;8.02;;;11.10;70.10;;;;;;5094139;28;20051;-63
2022/02/08 12:07:52;;;;;;;21.92;8.25;;;11.20;72.60;;;;;;5094035;28;20032;-64
2022/02/08 12:10:28;;;;;;;19.92;9.15;;;11.20;74.50;;;;;;5093909;28;20032;-64
2022/02/08 12:35:13;;;;;;;10.85;4.05;;;;;;;;;;5093827;28;20128;-64
2022/02/08 13:02:43;;;;;;;19.63;9.52;;;11.30;75.20;;;;;;5093142;28;20024;-64
2022/02/08 14:08:09;;;;;;;12.25;6.28;;;;;;;;;;5092732;28;20165;-64
2022/02/08 14:16:06;;;;;;;15.25;5.03;;;;;;;;;;5092706;28;20081;-62
2022/02/08 14:19:06;;;;;;;27.02;10.23;;;;;;;;;;5096388;28;20079;-63
2022/02/08 14:33:03;;;;;;;15.65;4.95;;;;;;;;;;5081742;28;20085;-63
2022/02/08 15:05:47;;;;;;;15.55;5.57;;;;;;;;;;5095714;28;20039;-65
2022/02/08 15:10:31;;;;;;;22.70;8.15;;;;;;;;;;5095474;28;20024;-65
2022/02/08 15:13:00;;;;;;;24.55;10.35;;;;;;;;;;5095615;28;20027;-68
2022/02/08 15:15:35;;;;;;;13.43;5.70;;;;;;;;;;5093705;28;20140;-65
2022/02/08 15:18:01;;;;;;;17.08;6.50;;;;;;;;;;5095112;28;20480;-63
2022/02/08 15:20:28;;;;;;;17.13;6.93;;;;;;;;;;5094044;28;20160;-63
2022/02/08 15:22:58;;;;;;;16.08;6.68;;;;;;;;;;5097537;28;20016;-63
2022/02/08 15:25:27;;;;;;;17.60;6.97;;;;;;;;;;5094813;28;20111;-64
2022/02/08 15:27:53;;;;;;;24.77;8.18;;;;;;;;;;5094342;28;20457;-63
2022/02/08 15:30:20;;;;;;;22.90;7.57;;;;;;;;;;5095076;28;20062;-66
2022/02/08 15:32:47;;;;;;;19.65;8.55;;;;;;;;;;5076448;28;20554;-64
2022/02/08 15:35:14;;;;;;;20.25;10.10;;;;;;;;;;5076679;28;20457;-65
2022/02/08 15:37:40;;;;;;;22.30;10.07;;;;;;;;;;5104846;28;20069;-64
2022/02/08 15:40:09;;;;;;;28.52;11.00;;;;;;;;;;5087769;28;20183;-64
2022/02/08 15:42:39;;;;;;;31.67;12.35;;;;;;;;;;5109106;28;20384;-63
2022/02/08 15:45:51;;;;;;;37.33;12.30;;;;;;;;;;5097288;28;20430;-64
2022/02/08 15:47:58;;;;;;;53.40;21.83;;;;;;;;;;5083189;28;20040;-64
2022/02/08 15:50:48;;;;;;;56.75;21.55;;;;;;;;;;5094525;28;20024;-63
2022/02/08 15:53:30;;;;;;;66.03;23.08;;;;;;;;;;5094090;28;20029;-63
2022/02/08 15:58:27;;;;;;;59.70;24.45;;;;;;;;;;5093269;28;19958;-63
2022/02/08 16:08:55;;;;;;;36.20;16.23;;;;;;;;;;5094302;28;20051;-63
2022/02/08 16:19:44;;;;;;;26.30;6.65;;;;;;;;;;5093841;28;20091;-63
2022/02/08 16:22:38;;;;;;;13.88;5.97;;;;;;;;;;5092449;28;20461;-66
2022/02/08 16:46:18;;;;;;;68.00;29.75;;;;;;;;;;5093501;28;20505;-65
2022/02/08 16:57:21;;;;;;;77.53;34.38;;;;;;;;;;5030516;28;20038;-65
2022/02/08 16:59:47;;;;;;;83.03;34.20;;;;;;;;;;5030826;28;20037;-65
2022/02/08 17:02:22;;;;;;;111.10;46.15;;;;;;;;;;5030668;28;20037;-66
2022/02/08 17:04:48;;;;;;;121.07;46.35;;;;;;;;;;5031055;28;20409;-66
2022/02/08 17:07:14;;;;;;;75.57;31.95;;;;;;;;;;5030575;28;20030;-66
2022/02/08 17:09:48;;;;;;;76.32;30.38;;;;;;;;;;5030729;28;20029;-69
2022/02/08 17:12:21;;;;;;;153.10;54.53;;;;;;;;;;5027368;28;20053;-65
2022/02/08 17:15:04;;;;;;;100.57;40.83;;;;;;;;;;5018834;28;20033;-67
2022/02/08 17:18:04;;;;;;;102.70;38.63;;;;;;;;;;5011673;28;20040;-67
2022/02/08 17:45:40;;;;;;;46.40;19.42;;;;;;;;;;5092665;28;20495;-65
2022/02/08 17:48:01;;;;;;;45.67;21.00;;;;;;;;;;5092234;28;20123;-65
2022/02/08 17:50:27;;;;;;;48.50;20.90;;;;;;;;;;5074730;28;20288;-70
2022/02/08 17:52:54;;;;;;;41.80;18.50;;;;;;;;;;5096562;28;20483;-69
2022/02/08 17:55:21;;;;;;;39.67;17.42;;;;;;;;;;5078670;28;20423;-67
2022/02/08 17:57:49;;;;;;;40.05;17.23;;;;;;;;;;5078582;28;20496;-69
2022/02/08 18:00:15;;;;;;;56.17;24.40;;;;;;;;;;5096855;28;20516;-68
2022/02/08 18:02:43;;;;;;;87.82;36.13;;;;;;;;;;5096663;28;20032;-68
2022/02/08 18:05:10;;;;;;;66.63;29.25;;;;;;;;;;5096707;28;20024;-66
2022/02/08 18:07:36;;;;;;;116.72;45.80;;;;;;;;;;5096325;28;20052;-66
2022/02/08 18:10:04;;;;;;;77.68;31.98;;;;;;;;;;5096638;28;20024;-65
2022/02/08 18:12:30;;;;;;;43.92;19.15;;;;;;;;;;5096530;28;20028;-66
2022/02/08 18:15:00;;;;;;;50.33;19.60;;;;;;;;;;5095756;28;20051;-72
2022/02/08 18:17:37;;;;;;;55.53;27.92;;;;;;;;;;5096333;28;20032;-67
2022/02/08 18:20:13;;;;;;;42.08;23.02;;;;;;;;;;5096245;28;20024;-68
2022/02/08 19:03:17;;;;;;;30.17;14.57;;;;;;;;;;5095275;28;20101;-69
2022/02/08 19:08:54;;;;;;;30.25;12.80;;;;;;;;;;5115433;28;20510;-65
2022/02/08 19:17:02;;;;;;;24.13;11.38;;;;;;;;;;5095100;28;20081;-69
2022/02/08 19:22:01;;;;;;;25.48;12.85;;;;;;;;;;5095876;28;20069;-65
2022/02/08 19:24:27;;;;;;;25.58;11.65;;;;;;;;;;5077502;28;20468;-66
2022/02/08 19:26:57;;;;;;;31.25;13.65;;;;;;;;;;5096634;28;20031;-65
2022/02/08 19:29:26;;;;;;;30.85;13.23;;;;;;;;;;5096384;28;20020;-67
2022/02/08 19:31:52;;;;;;;25.88;12.13;;;;;;;;;;5096019;28;20035;-68
2022/02/08 19:34:18;;;;;;;28.05;11.73;;;;;;;;;;5095738;28;20034;-66
2022/02/08 19:36:45;;;;;;;37.22;15.00;;;;;;;;;;5077131;28;20059;-66
2022/02/08 19:39:12;;;;;;;27.48;11.73;;;;;;;;;;5095441;28;20028;-68
2022/02/08 19:41:39;;;;;;;25.25;10.75;;;;;;;;;;5094372;28;20530;-67
2022/02/08 19:44:09;;;;;;;23.63;11.68;;;;;;;;;;5094737;28;20024;-66
2022/02/08 19:46:35;;;;;;;24.17;11.80;;;;;;;;;;5094659;28;20099;-65
2022/02/08 19:49:02;;;;;;;29.85;13.65;;;;;;;;;;5094678;28;20478;-69
2022/02/08 19:51:29;;;;;;;34.83;17.65;;;;;;;;;;5094512;28;20073;-65
2022/02/08 19:53:57;;;;;;;41.33;17.27;;;;;;;;;;5094546;28;20062;-65
2022/02/08 19:56:32;;;;;;;38.70;19.05;;;;;;;;;;5094463;28;20073;-69
2022/02/08 19:59:00;;;;;;;34.45;15.05;;;;;;;;;;5094564;28;20116;-65
2022/02/08 20:01:34;;;;;;;34.10;15.65;;;;;;;;;;5092913;28;20028;-69
2022/02/08 20:04:15;;;;;;;33.65;16.00;;;;;;;;;;5094838;28;20162;-69
2022/02/08 20:06:41;;;;;;;42.53;19.17;;;;;;;;;;5093046;28;20028;-66
2022/02/08 20:09:08;;;;;;;38.55;17.30;;;;;;;;;;5094476;28;20028;-65
2022/02/08 20:11:34;;;;;;;50.97;21.30;;;;;;;;;;5094636;28;20032;-67
2022/02/08 20:14:02;;;;;;;36.67;17.13;;;;;;;;;;5093635;28;20412;-67
2022/02/08 20:16:29;;;;;;;39.22;17.77;;;;;;;;;;5094149;28;20035;-65
2022/02/08 20:18:58;;;;;;;38.40;17.98;;;;;;;;;;5094211;28;20039;-68
2022/02/08 20:21:26;;;;;;;37.00;16.85;;;;;;;;;;5093694;28;20024;-66
2022/02/08 20:23:54;;;;;;;30.27;15.23;;;;;;;;;;5094048;28;20029;-66
2022/02/08 20:26:25;;;;;;;39.45;17.58;;;;;;;;;;5093794;28;20447;-65
2022/02/08 20:28:55;;;;;;;43.80;19.02;;;;;;;;;;5092043;28;20058;-66
2022/02/08 20:31:21;;;;;;;40.70;17.73;;;;;;;;;;5094039;28;20549;-67
2022/02/08 20:33:48;;;;;;;36.33;16.55;;;;;;;;;;5094021;28;20052;-66
2022/02/08 20:36:15;;;;;;;35.38;14.88;;;;;;;;;;5093920;28;20055;-66
2022/02/08 20:38:42;;;;;;;26.45;13.73;;;;;;;;;;5092426;28;20094;-66
2022/02/08 20:41:08;;;;;;;27.00;13.90;;;;;;;;;;5092497;28;20031;-68
2022/02/08 20:43:36;;;;;;;24.98;12.07;;;;;;;;;;5092566;28;20499;-66
2022/02/08 20:46:06;;;;;;;27.15;13.80;;;;;;;;;;5093629;28;20020;-66
2022/02/08 20:48:33;;;;;;;26.38;13.93;;;;;;;;;;5093633;28;20031;-63
2022/02/08 20:51:01;;;;;;;27.77;15.15;;;;;;;;;;5093585;28;20031;-65
2022/02/08 20:56:14;;;;;;;31.20;15.00;;;;;;;;;;5093622;28;20024;-65
2022/02/08 21:01:16;;;;;;;26.30;13.32;;;;;;;;;;5093576;28;20035;-66
2022/02/08 21:04:01;;;;;;;40.10;20.40;;;;;;;;;;5093449;28;20056;-66
2022/02/08 21:06:28;;;;;;;29.25;14.50;;;;;;;;;;5093408;28;20024;-66
2022/02/08 21:08:55;;;;;;;27.70;13.55;;;;;;;;;;5088695;28;20028;-63
2022/02/08 21:11:32;;;;;;;32.70;15.00;;;;;;;;;;5078474;28;20173;-65
2022/02/08 21:14:05;;;;;;;23.23;11.50;;;;;;;;;;5093062;28;20052;-63
2022/02/08 21:16:46;;;;;;;22.13;10.45;;;;;;;;;;5093276;28;20032;-65
2022/02/08 21:19:14;;;;;;;26.17;11.13;;;;;;;;;;5091229;28;20194;-64
2022/02/08 21:21:41;;;;;;;21.88;9.95;;;;;;;;;;5073766;28;20020;-64
2022/02/08 21:24:07;;;;;;;21.52;10.60;;;;;;;;;;5080897;28;20149;-63
2022/02/08 21:26:39;;;;;;;24.98;9.75;;;;;;;;;;5099736;28;20030;-63
2022/02/08 21:32:26;;;;;;;23.95;9.23;;;;;;;;;;5113309;28;20023;-63
2022/02/08 21:48:53;;;;;;;28.05;10.07;;;;;;;;;;5113089;28;20388;-64
2022/02/08 21:51:50;;;;;;;32.33;11.85;;;;;;;;;;5112854;28;20031;-63
2022/02/08 21:54:17;;;;;;;21.77;8.90;;;;;;;;;;5112716;28;20383;-63
2022/02/08 21:56:43;;;;;;;21.25;9.20;;;;;;;;;;5112959;28;20020;-63
2022/02/08 21:59:09;;;;;;;23.13;10.00;;;;;;;;;;5113061;28;20028;-64
2022/02/08 22:01:36;;;;;;;19.10;8.57;;;;;;;;;;5113123;28;20077;-64
2022/02/08 22:04:02;;;;;;;22.17;9.77;;;;;;;;;;5113112;28;20022;-65
2022/02/08 22:06:28;;;;;;;20.27;9.02;;;;;;;;;;5112928;28;20069;-63
2022/02/08 22:08:57;;;;;;;15.13;8.40;;;;;;;;;;5113207;28;20024;-64
2022/02/08 22:22:13;;;;;;;17.67;7.72;;;;;;;;;;5113097;28;20077;-64
2022/02/08 22:25:48;;;;;;;14.23;6.88;;;;;;;;;;5113117;28;20027;-64
2022/02/08 22:27:42;;;;;;;14.80;7.82;;;;;;;;;;5094922;28;20039;-64
2022/02/08 22:32:51;;;;;;;16.48;7.93;;;;;;;;;;5113052;28;20502;-64
2022/02/08 22:35:25;;;;;;;18.35;8.88;;;;;;;;;;5112981;28;20024;-65
2022/02/08 22:38:13;;;;;;;21.33;8.98;;;;;;;;;;5115606;28;20027;-64